Time;durP1;ratioP1;P1;durP2;ratioP2;P2;SDS_P1;SDS_P2;PMS_P1;PMS_P2;Temp;Humidity;BMP_temperature;BMP_pressure;BME280_temperature;BME280_humidity;BME280_pressure;Samples;Min_cycle;Max_cycle;Signal;HPM_P1;HPM_P2
2022/04/18 17:34:53;;;;;;;8.05;2.45;;;;;;;19.00;39.33;101500.38;10590053;27;20363;-62
2022/04/18 17:39:56;;;;;;;5.97;3.33;;;;;;;18.79;40.81;101502.09;10575429;28;20048;-61
2022/04/18 17:44:58;;;;;;;4.75;2.80;;;;;;;18.25;42.68;101495.78;10576098;28;20074;-63
2022/04/18 17:50:02;;;;;;;4.95;2.78;;;;;;;18.16;43.26;101487.56;10576438;28;20058;-62
2022/04/18 18:00:26;;;;;;;2.22;2.05;;;;;;;16.81;48.70;101490.66;10575211;28;20149;-63
2022/04/18 18:05:29;;;;;;;3.15;2.42;;;;;;;16.47;49.64;101492.22;10575847;28;20043;-63
2022/04/18 18:10:32;;;;;;;5.10;2.40;;;;;;;16.16;49.66;101497.03;10575029;28;20139;-63
2022/04/18 18:15:34;;;;;;;6.72;2.42;;;;;;;15.70;50.58;101498.38;10575842;28;20105;-63
2022/04/18 18:20:43;;;;;;;8.18;2.58;;;;;;;15.63;51.20;101494.44;10568030;28;20134;-63
2022/04/18 18:25:45;;;;;;;7.85;3.08;;;;;;;15.11;53.73;101501.41;10557044;28;20418;-63
2022/04/18 18:30:47;;;;;;;4.28;2.22;;;;;;;14.96;54.34;101511.19;10563850;28;20056;-63
2022/04/18 18:35:52;;;;;;;4.13;2.45;;;;;;;14.74;55.85;101506.41;10566696;28;20415;-63
2022/04/18 18:40:54;;;;;;;3.50;2.42;;;;;;;14.38;54.99;101505.13;10567452;28;20055;-63
2022/04/18 18:46:02;;;;;;;6.95;2.13;;;;;;;14.18;56.18;101501.09;10540428;28;20415;-62
2022/04/18 18:56:26;;;;;;;;;;;;;;;13.78;58.21;101502.66;10538646;28;20047;-62
2022/04/18 19:01:28;;;;;;;4.28;2.33;;;;;;;13.48;58.46;101511.41;10538211;28;19924;-62
2022/04/18 19:06:31;;;;;;;4.57;2.50;;;;;;;13.49;58.23;101523.66;10537570;28;20098;-62
2022/04/18 19:11:33;;;;;;;4.38;2.85;;;;;;;13.31;61.07;101526.34;10537984;28;20055;-62
2022/04/18 19:27:18;;;;;;;7.67;4.50;;;;;;;12.77;62.23;101534.63;10537386;28;20059;-61
2022/04/18 19:32:21;;;;;;;4.00;3.60;;;;;;;12.40;63.92;101528.72;10536480;28;20314;-61
2022/04/18 19:37:23;;;;;;;3.67;3.38;;;;;;;12.47;64.07;101538.91;10536914;28;20067;-61
2022/04/18 19:42:26;;;;;;;6.13;3.92;;;;;;;12.49;62.92;101531.78;10531858;28;20049;-63
2022/04/18 19:47:28;;;;;;;4.28;3.88;;;;;;;12.48;63.13;101530.13;10536802;28;20066;-61
2022/04/18 19:52:31;;;;;;;4.32;3.92;;;;;;;12.21;64.78;101523.63;10536305;28;20051;-61
2022/04/18 19:57:33;;;;;;;5.82;4.78;;;;;;;12.08;65.14;101528.66;10534813;28;20509;-61
2022/04/18 20:02:37;;;;;;;7.80;4.75;;;;;;;11.83;67.42;101526.41;10535286;28;20048;-61
2022/04/18 20:07:39;;;;;;;5.38;4.43;;;;;;;11.92;65.72;101527.78;10536049;28;20056;-61
2022/04/18 20:12:43;;;;;;;5.78;3.90;;;;;;;11.92;64.61;101521.66;10535135;28;20048;-61
2022/04/18 20:17:45;;;;;;;8.02;4.93;;;;;;;11.94;65.07;101515.41;10535285;28;20052;-61
2022/04/18 20:22:47;;;;;;;5.57;4.53;;;;;;;11.90;63.71;101513.81;10535213;28;20052;-61
2022/04/18 20:27:50;;;;;;;8.25;4.20;;;;;;;11.52;68.43;101514.00;10534332;28;20055;-61
2022/04/18 20:32:52;;;;;;;4.85;4.22;;;;;;;11.40;70.13;101515.47;10534060;28;20414;-61
2022/04/18 20:37:54;;;;;;;10.15;4.10;;;;;;;11.23;70.28;101515.44;10533863;28;20060;-61
2022/04/18 20:42:57;;;;;;;5.05;4.32;;;;;;;11.14;72.56;101504.47;10532782;28;20055;-61
2022/04/18 20:47:59;;;;;;;4.50;4.07;;;;;;;11.05;73.00;101515.41;10532817;28;20699;-62
2022/04/18 20:58:34;;;;;;;5.93;4.20;;;;;;;10.89;72.95;101503.94;10533535;28;20418;-62
2022/04/18 21:03:37;;;;;;;7.15;4.63;;;;;;;10.81;74.13;101500.84;10532269;28;20059;-62
2022/04/18 21:08:42;;;;;;;5.70;4.80;;;;;;;10.56;72.99;101507.25;10533437;28;20052;-62
2022/04/18 21:13:44;;;;;;;6.90;4.93;;;;;;;10.36;75.90;101503.75;10533589;28;20052;-62
2022/04/18 21:18:47;;;;;;;6.45;5.60;;;;;;;10.39;74.32;101508.00;10533084;28;20062;-62
2022/04/18 21:23:49;;;;;;;9.60;5.22;;;;;;;10.31;77.33;101504.84;10537445;28;20048;-62
2022/04/18 21:28:52;;;;;;;10.07;5.25;;;;;;;10.47;74.91;101511.09;10538526;28;20414;-62
2022/04/18 21:33:54;;;;;;;9.02;5.68;;;;;;;10.29;76.04;101504.94;10539138;28;20060;-62
2022/04/18 21:38:56;;;;;;;7.20;5.85;;;;;;;9.98;77.72;101498.41;10539470;28;20055;-61
2022/04/18 21:43:59;;;;;;;8.80;6.15;;;;;;;9.98;77.89;101502.81;10537774;28;20044;-61
2022/04/18 21:49:16;;;;;;;8.00;5.80;;;;;;;9.93;78.19;101507.38;10540069;28;20052;-62
2022/04/18 21:54:19;;;;;;;6.40;5.43;;;;;;;9.86;78.80;101502.41;10538598;28;20059;-61
2022/04/18 21:59:21;;;;;;;6.45;5.85;;;;;;;9.78;78.32;101504.50;10539140;28;20627;-61
2022/04/18 22:04:24;;;;;;;7.05;6.35;;;;;;;9.71;80.36;101507.47;10539621;28;20040;-61
2022/04/18 22:09:27;;;;;;;7.25;6.22;;;;;;;9.76;78.94;101497.66;10538973;28;20491;-61
2022/04/18 22:14:29;;;;;;;9.15;6.65;;;;;;;9.44;80.84;101500.69;10539419;28;20040;-61
2022/04/18 22:24:58;;;;;;;9.82;6.45;;;;;;;9.24;82.97;101490.22;10547210;28;20047;-61
2022/04/18 22:30:04;;;;;;;8.63;6.75;;;;;;;9.32;82.66;101484.69;10545565;28;20048;-62
2022/04/18 22:35:09;;;;;;;9.48;7.63;;;;;;;9.28;81.88;101479.59;10545679;28;20410;-61
2022/04/18 22:40:11;;;;;;;20.88;9.45;;;;;;;9.07;83.90;101475.22;10546600;28;20055;-61
2022/04/18 22:45:14;;;;;;;9.57;7.40;;;;;;;9.00;84.27;101479.00;10545731;28;20403;-62
2022/04/18 22:50:17;;;;;;;10.90;7.03;;;;;;;9.01;84.70;101485.91;10545464;28;20070;-62
2022/04/18 22:55:19;;;;;;;8.75;7.28;;;;;;;8.92;84.71;101480.13;10545897;28;20048;-61
2022/04/18 23:00:21;;;;;;;11.02;7.13;;;;;;;8.62;88.59;101497.00;10545790;28;20048;-61
2022/04/18 23:10:44;;;;;;;10.57;7.15;;;;;;;8.74;84.09;101483.47;10544671;28;20051;-61
2022/04/18 23:15:47;;;;;;;9.90;6.80;;;;;;;8.73;84.03;101485.25;10545200;28;20059;-61
2022/04/18 23:20:50;;;;;;;8.48;7.55;;;;;;;8.71;85.96;101487.06;10544349;28;20481;-61
2022/04/18 23:25:52;;;;;;;9.30;7.45;;;;;;;8.47;86.10;101482.78;10544011;28;20060;-61
2022/04/18 23:30:55;;;;;;;9.02;7.88;;;;;;;8.40;86.07;101482.13;10544082;28;20052;-61
2022/04/18 23:36:00;;;;;;;10.43;8.05;;;;;;;8.26;88.12;101481.78;10544424;28;20055;-61
2022/04/18 23:46:24;;;;;;;10.32;8.02;;;;;;;8.11;89.75;101463.16;10543364;28;20483;-61
2022/04/18 23:51:27;;;;;;;11.80;9.07;;;;;;;8.13;87.37;101460.50;10541908;28;20044;-61
2022/04/18 23:56:30;;;;;;;11.13;9.32;;;;;;;8.05;85.97;101457.31;10543496;28;20056;-61
